createdAt,value
2022-11-09T02:51:37.597Z,40.61
2022-11-09T02:59:49.781Z,37.98
2022-11-09T03:05:15.077Z,37.64
2022-11-09T03:07:41.654Z,39.38
2022-11-09T03:10:16.852Z,41.09
2022-11-09T03:12:53.577Z,41.93
2022-11-09T03:15:33.247Z,42.58
2022-11-09T03:18:03.432Z,41.84
2022-11-09T03:20:48.062Z,39.03
2022-11-09T03:26:07.650Z,37.53
2022-11-09T05:28:36.079Z,42.25
2022-11-09T05:31:35.136Z,41.97
2022-11-09T12:55:27.622Z,43.66
2022-11-09T12:58:00.445Z,42.27
2022-11-09T13:00:27.387Z,41.74
2022-11-09T13:02:53.712Z,41.87
2022-11-09T13:05:20.839Z,41.87
2022-11-09T13:07:56.814Z,41.73
2022-11-09T13:10:33.278Z,40.00
2022-11-09T13:13:00.496Z,40.42
2022-11-09T13:15:36.423Z,42.16
2022-11-09T13:20:59.730Z,41.59
2022-11-09T13:48:01.531Z,43.86
2022-11-09T13:50:27.773Z,43.41
2022-11-09T13:52:54.070Z,42.20
2022-11-09T13:55:20.212Z,42.45
2022-11-09T13:57:46.333Z,45.08
2022-11-09T14:00:12.434Z,42.39
2022-11-09T14:02:38.549Z,42.91
2022-11-09T14:05:04.730Z,42.96
2022-11-09T14:07:30.915Z,42.93
2022-11-09T14:09:57.001Z,42.45
2022-11-09T14:12:23.137Z,43.80
2022-11-09T14:14:49.681Z,44.29
2022-11-09T14:17:15.781Z,42.18
2022-11-09T14:19:45.025Z,43.23
2022-11-09T14:22:11.219Z,44.60
2022-11-09T14:24:37.337Z,42.52
2022-11-09T14:27:03.522Z,42.11
2022-11-09T14:29:29.690Z,42.49
2022-11-09T14:31:55.857Z,42.25
2022-11-09T14:34:22.015Z,42.70
2022-11-09T14:36:48.252Z,42.19
2022-11-09T14:39:14.412Z,42.33
2022-11-09T14:41:40.563Z,43.93
2022-11-09T14:44:06.781Z,42.22
2022-11-09T14:46:32.983Z,42.15
2022-11-09T14:48:59.130Z,42.13
2022-11-09T14:51:25.362Z,42.39
2022-11-09T14:53:51.532Z,42.03
2022-11-09T14:56:17.701Z,43.23
2022-11-09T14:58:43.847Z,41.81
2022-11-09T15:01:10.040Z,43.51
2022-11-09T15:03:36.225Z,44.95
2022-11-09T15:06:02.499Z,46.61
2022-11-09T15:08:28.653Z,47.12
2022-11-09T15:10:54.898Z,47.59
2022-11-09T15:13:21.075Z,45.88
2022-11-09T15:15:47.273Z,46.37
2022-11-09T15:18:13.419Z,48.88
2022-11-09T15:20:39.608Z,45.54
2022-11-09T15:23:06.835Z,44.54
2022-11-09T15:25:33.007Z,43.00
2022-11-09T15:27:59.196Z,42.97
2022-11-09T15:30:25.423Z,42.15
2022-11-09T15:32:53.897Z,43.22
2022-11-09T15:35:22.798Z,44.63
2022-11-09T15:37:49.026Z,44.10
2022-11-09T15:40:15.231Z,45.00
2022-11-09T15:42:45.210Z,45.15
2022-11-09T15:45:12.723Z,44.44
2022-11-09T15:47:38.911Z,44.06
2022-11-09T15:50:05.100Z,44.97
2022-11-09T15:52:31.306Z,47.21
2022-11-09T15:54:57.432Z,48.34
2022-11-09T15:57:23.574Z,47.84
2022-11-09T15:59:49.727Z,48.52
2022-11-09T16:02:15.879Z,48.15
2022-11-09T16:04:42.009Z,48.52
2022-11-09T16:07:08.181Z,48.85
2022-11-09T16:09:34.331Z,49.89
2022-11-09T16:12:00.452Z,50.52
2022-11-09T16:14:26.607Z,51.67
2022-11-09T16:16:52.770Z,51.29
2022-11-09T16:19:19.005Z,52.08
2022-11-09T16:21:45.225Z,51.25
2022-11-09T16:24:11.442Z,51.81
2022-11-09T16:26:37.691Z,51.89
2022-11-09T16:29:03.895Z,52.39
2022-11-09T16:31:50.272Z,54.11
2022-11-09T16:34:16.206Z,56.06
2022-11-09T16:36:48.084Z,58.47
2022-11-09T16:39:16.046Z,59.44
2022-11-09T16:41:42.175Z,57.58
2022-11-09T16:44:08.422Z,56.21
2022-11-09T16:46:34.605Z,55.92
2022-11-09T16:49:00.811Z,55.66
2022-11-09T16:51:27.112Z,55.29
2022-11-09T16:53:53.361Z,57.00
2022-11-09T16:56:19.556Z,60.33
2022-11-09T16:58:45.735Z,58.62
2022-11-09T17:01:13.337Z,57.82
2022-11-09T17:03:40.834Z,57.47
2022-11-09T17:06:07.060Z,57.93
2022-11-09T17:08:33.290Z,57.66
2022-11-09T17:10:59.523Z,57.80
2022-11-09T17:13:25.738Z,57.53
2022-11-09T17:15:51.871Z,58.25
2022-11-09T17:18:18.327Z,56.57
2022-11-09T17:20:44.818Z,55.27
2022-11-09T17:23:10.938Z,54.77
2022-11-09T17:25:43.560Z,55.53
2022-11-09T17:28:09.725Z,55.47
2022-11-09T17:30:35.899Z,55.79
2022-11-09T17:33:02.045Z,55.84
2022-11-09T17:35:28.281Z,54.88
2022-11-09T17:37:57.662Z,55.90
2022-11-09T17:40:23.867Z,56.14
2022-11-09T17:42:50.177Z,55.81
2022-11-09T17:45:19.046Z,56.10
2022-11-09T17:47:48.143Z,58.14
2022-11-09T17:50:14.329Z,57.72
2022-11-09T17:52:41.399Z,57.44
2022-11-09T17:55:07.586Z,56.64
2022-11-09T17:57:33.877Z,56.93
2022-11-09T18:00:00.177Z,56.40
2022-11-09T18:13:14.217Z,60.86
2022-11-09T18:15:45.690Z,58.74
2022-11-09T18:21:05.851Z,57.96
2022-11-09T18:28:55.344Z,57.41
2022-11-09T18:31:21.750Z,56.75
2022-11-09T18:33:48.107Z,57.46
2022-11-09T18:36:16.961Z,58.87
2022-11-09T18:38:43.829Z,61.49
2022-11-09T18:41:09.964Z,62.00
2022-11-09T18:43:36.278Z,60.22
2022-11-09T18:46:02.633Z,60.30
2022-11-09T18:48:28.821Z,59.64
2022-11-09T18:50:54.943Z,59.85
2022-11-09T18:53:21.459Z,60.63
2022-11-09T18:55:47.871Z,62.15
2022-11-09T18:58:14.098Z,61.45
2022-11-09T19:00:40.376Z,60.00
2022-11-09T19:03:06.658Z,59.80
2022-11-09T19:05:32.903Z,59.53
2022-11-09T19:07:59.196Z,63.00
2022-11-09T19:10:25.532Z,62.64
2022-11-09T19:12:51.748Z,61.45
2022-11-09T19:15:18.034Z,60.74
2022-11-09T19:17:44.226Z,60.65
2022-11-09T19:20:10.576Z,64.04
2022-11-09T19:22:36.835Z,66.98
2022-11-09T19:25:03.071Z,63.50
2022-11-09T19:27:29.199Z,60.74
2022-11-09T19:29:55.321Z,63.30
2022-11-09T19:32:21.495Z,60.94
2022-11-09T19:34:47.757Z,61.01
2022-11-09T19:37:13.941Z,59.25
2022-11-09T19:39:43.024Z,57.85
2022-11-09T19:42:09.680Z,58.23
2022-11-09T19:44:35.863Z,58.05
2022-11-09T19:47:02.124Z,57.85
2022-11-09T19:49:28.316Z,57.04
2022-11-09T21:48:22.159Z,60.61
2022-11-09T21:53:41.685Z,60.85
